createdAt,value
2022-10-20T00:00:23.871Z,83.66
2022-10-20T00:01:24.452Z,83.58
2022-10-20T00:02:24.610Z,83.40
2022-10-20T00:03:23.781Z,83.57
2022-10-20T00:04:23.849Z,83.51
2022-10-20T00:05:23.723Z,83.54
2022-10-20T00:06:23.803Z,83.88
2022-10-20T00:07:24.442Z,83.59
2022-10-20T00:08:25.043Z,83.44
2022-10-20T00:09:23.742Z,83.32
2022-10-20T00:10:23.764Z,83.19
2022-10-20T00:11:23.624Z,83.23
2022-10-20T00:12:23.653Z,83.57
2022-10-20T00:13:23.604Z,83.82
2022-10-20T00:14:24.450Z,83.91
2022-10-20T00:15:23.657Z,83.94
2022-10-20T00:16:23.731Z,83.80
2022-10-20T00:17:23.603Z,83.83
2022-10-20T00:18:23.591Z,84.02
2022-10-20T00:19:23.551Z,84.12
2022-10-20T00:20:44.582Z,84.09
2022-10-20T00:21:24.282Z,83.79
2022-10-20T00:22:23.509Z,83.73
2022-10-20T00:23:24.132Z,84.00
2022-10-20T00:24:24.201Z,84.22
2022-10-20T00:25:23.453Z,84.19
2022-10-20T00:26:23.811Z,83.65
2022-10-20T00:27:24.066Z,83.87
2022-10-20T00:28:23.578Z,84.17
2022-10-20T00:29:23.383Z,83.70
2022-10-20T00:30:25.075Z,83.83
2022-10-20T00:31:23.392Z,83.76
2022-10-20T00:32:23.473Z,83.92
2022-10-20T00:33:23.983Z,83.90
2022-10-20T00:34:23.400Z,83.67
2022-10-20T00:35:23.319Z,83.44
2022-10-20T00:36:23.462Z,83.34
2022-10-20T00:37:23.980Z,83.45
2022-10-20T00:38:23.491Z,83.52
2022-10-20T00:39:23.269Z,83.64
2022-10-20T00:40:23.979Z,84.07
2022-10-20T00:41:23.939Z,83.97
2022-10-20T00:42:23.239Z,83.94
2022-10-20T00:43:23.910Z,84.11
2022-10-20T00:44:24.059Z,84.08
2022-10-20T00:45:23.179Z,83.76
2022-10-20T00:46:23.278Z,83.59
2022-10-20T00:47:23.836Z,83.73
2022-10-20T00:48:23.989Z,83.94
2022-10-20T00:49:23.153Z,84.34
2022-10-20T00:50:25.026Z,84.39
2022-10-20T00:51:23.828Z,84.46
2022-10-20T00:52:24.809Z,84.40
2022-10-20T00:53:23.818Z,84.29
2022-10-20T00:54:23.897Z,84.58
2022-10-20T00:55:23.749Z,84.36
2022-10-20T00:56:23.107Z,84.40
2022-10-20T00:57:23.028Z,84.31
2022-10-20T00:58:23.106Z,84.13
2022-10-20T00:59:23.097Z,84.05
2022-10-20T01:00:23.157Z,83.98
2022-10-20T01:01:23.117Z,83.86
2022-10-20T01:02:24.217Z,83.87
2022-10-20T01:03:23.016Z,84.20
2022-10-20T01:04:23.166Z,84.32
2022-10-20T01:05:22.917Z,84.28
2022-10-20T01:06:22.917Z,84.64
2022-10-20T01:07:23.574Z,84.89
2022-10-20T01:08:23.744Z,84.31
2022-10-20T01:09:23.497Z,84.23
2022-10-20T01:10:22.945Z,84.23
2022-10-20T01:11:23.492Z,84.25
2022-10-20T01:12:22.922Z,84.39
2022-10-20T01:13:22.806Z,84.52
2022-10-20T01:14:23.036Z,84.60
2022-10-20T01:15:25.778Z,84.92
2022-10-20T01:16:23.506Z,85.00
2022-10-20T01:17:22.744Z,84.88
2022-10-20T01:18:23.513Z,84.85
2022-10-20T01:19:22.716Z,84.83
2022-10-20T01:20:22.773Z,84.97
2022-10-20T01:21:22.694Z,85.18
2022-10-20T01:22:22.732Z,85.08
2022-10-20T01:23:23.586Z,85.23
2022-10-20T01:24:22.761Z,85.42
2022-10-20T01:25:23.342Z,85.21
2022-10-20T01:26:25.742Z,85.02
2022-10-20T01:27:22.633Z,84.77
2022-10-20T01:28:22.672Z,84.46
2022-10-20T01:29:22.604Z,84.49
2022-10-20T01:30:22.684Z,84.49
2022-10-20T01:31:22.574Z,84.41
2022-10-20T01:32:23.442Z,84.49
2022-10-20T01:33:23.335Z,84.67
2022-10-20T01:34:22.724Z,84.77
2022-10-20T01:35:23.136Z,84.90
2022-10-20T01:36:24.659Z,84.60
2022-10-20T01:37:33.970Z,84.53
2022-10-20T01:38:23.521Z,84.53
2022-10-20T01:39:22.565Z,84.65
2022-10-20T01:40:23.185Z,84.85
2022-10-20T01:41:22.454Z,85.18
2022-10-20T01:42:22.465Z,85.26
2022-10-20T01:43:23.632Z,84.79
2022-10-20T01:44:22.434Z,84.64
2022-10-20T01:45:22.573Z,84.05
2022-10-20T01:46:23.032Z,83.76
2022-10-20T01:47:23.163Z,83.72
2022-10-20T01:48:22.956Z,83.74
2022-10-20T01:49:22.421Z,83.81
2022-10-20T01:50:23.183Z,84.09
2022-10-20T01:51:22.971Z,84.17
2022-10-20T01:52:22.942Z,84.18
2022-10-20T01:53:23.010Z,84.04
2022-10-20T01:54:22.951Z,84.17
2022-10-20T01:55:23.042Z,84.34
2022-10-20T01:56:23.193Z,84.51
2022-10-20T01:57:25.162Z,84.70
2022-10-20T01:58:22.853Z,85.22
2022-10-20T01:59:22.300Z,85.20
2022-10-20T02:00:22.855Z,85.53
2022-10-20T02:01:24.248Z,85.59
2022-10-20T02:02:22.202Z,85.04
2022-10-20T02:03:22.221Z,84.09
2022-10-20T02:04:22.143Z,83.71
2022-10-20T02:05:22.851Z,83.48
2022-10-20T02:06:22.810Z,83.55
2022-10-20T02:07:22.940Z,84.06
2022-10-20T02:08:22.109Z,84.41
2022-10-20T02:09:22.862Z,84.69
2022-10-20T02:10:22.719Z,85.10
2022-10-20T02:11:22.852Z,84.95
2022-10-20T02:12:22.698Z,84.16
2022-10-20T02:13:22.710Z,83.79
2022-10-20T02:14:23.119Z,83.59
2022-10-20T02:15:22.700Z,83.49
2022-10-20T02:16:22.688Z,83.73
2022-10-20T02:17:22.016Z,84.07
2022-10-20T02:18:22.611Z,84.52
2022-10-20T02:19:22.050Z,84.77
2022-10-20T02:20:21.949Z,84.89
2022-10-20T02:21:21.929Z,84.64
2022-10-20T02:22:22.547Z,84.44
2022-10-20T02:23:22.699Z,84.21
2022-10-20T02:24:22.640Z,84.06
2022-10-20T02:25:21.988Z,84.18
2022-10-20T02:26:21.878Z,84.02
2022-10-20T02:27:21.879Z,83.71
2022-10-20T02:28:22.469Z,83.74
2022-10-20T02:29:22.549Z,84.11
2022-10-20T02:30:21.807Z,84.41
2022-10-20T02:31:21.829Z,84.54
2022-10-20T02:32:22.540Z,84.99
2022-10-20T02:33:21.899Z,85.28
2022-10-20T02:34:21.768Z,85.36
2022-10-20T02:35:22.556Z,85.00
2022-10-20T02:36:21.698Z,85.02
2022-10-20T02:37:22.529Z,84.84
2022-10-20T02:38:22.459Z,84.76
2022-10-20T02:39:21.750Z,84.53
2022-10-20T02:40:22.310Z,84.70
2022-10-20T02:41:21.875Z,84.44
2022-10-20T02:42:21.628Z,84.28
2022-10-20T02:43:21.796Z,84.44
2022-10-20T02:44:22.537Z,84.34
2022-10-20T02:45:21.872Z,84.31
2022-10-20T02:46:21.582Z,84.05
2022-10-20T02:47:21.656Z,83.78
2022-10-20T02:48:22.206Z,84.30
2022-10-20T02:49:22.656Z,84.72
2022-10-20T02:50:21.564Z,84.74
2022-10-20T02:51:22.255Z,84.89
2022-10-20T02:52:22.577Z,84.61
2022-10-20T02:53:22.236Z,84.60
2022-10-20T02:54:21.517Z,84.15
2022-10-20T02:55:21.630Z,83.75
2022-10-20T02:56:24.441Z,83.69
2022-10-20T02:57:21.416Z,84.05
2022-10-20T02:58:22.165Z,84.14
2022-10-20T02:59:22.046Z,84.58
2022-10-20T03:00:22.157Z,84.68
2022-10-20T03:01:22.159Z,84.86
2022-10-20T03:02:22.305Z,85.12
2022-10-20T03:03:21.345Z,84.65
2022-10-20T03:04:21.525Z,84.15
2022-10-20T03:05:21.324Z,84.03
2022-10-20T03:06:22.216Z,83.83
2022-10-20T03:07:21.284Z,84.22
2022-10-20T03:08:21.414Z,84.62
2022-10-20T03:09:21.991Z,84.89
2022-10-20T03:10:21.363Z,84.76
2022-10-20T03:11:21.901Z,84.46
2022-10-20T03:12:22.954Z,84.54
2022-10-20T03:13:21.289Z,84.43
2022-10-20T03:14:23.025Z,84.27
2022-10-20T03:15:21.244Z,84.60
2022-10-20T03:16:22.384Z,84.82
2022-10-20T03:17:22.684Z,85.07
2022-10-20T03:18:22.255Z,84.98
2022-10-20T03:19:21.162Z,84.82
2022-10-20T03:20:21.195Z,85.09
2022-10-20T03:21:21.132Z,85.10
2022-10-20T03:22:21.199Z,85.32
2022-10-20T03:23:21.101Z,85.07
2022-10-20T03:24:21.824Z,84.53
2022-10-20T03:25:21.070Z,84.23
2022-10-20T03:26:22.460Z,84.56
2022-10-20T03:27:21.050Z,84.91
2022-10-20T03:28:21.082Z,85.16
2022-10-20T03:29:21.729Z,85.17
2022-10-20T03:30:21.121Z,84.88
2022-10-20T03:31:20.981Z,84.77
2022-10-20T03:32:22.246Z,84.70
2022-10-20T03:33:21.681Z,84.72
2022-10-20T03:34:23.541Z,84.80
2022-10-20T03:35:21.590Z,84.39
2022-10-20T03:36:21.291Z,84.44
2022-10-20T03:37:20.922Z,84.91
2022-10-20T03:38:22.130Z,85.08
2022-10-20T03:39:21.679Z,84.81
2022-10-20T03:40:21.070Z,84.50
2022-10-20T03:41:20.949Z,84.52
2022-10-20T03:42:21.042Z,84.37
2022-10-20T03:43:20.820Z,84.75
2022-10-20T03:44:21.609Z,85.03
2022-10-20T03:45:21.771Z,85.11
2022-10-20T03:46:22.209Z,85.10
2022-10-20T03:47:21.440Z,85.26
2022-10-20T03:48:21.503Z,84.88
2022-10-20T03:49:20.829Z,84.33
2022-10-20T03:50:21.927Z,84.20
2022-10-20T03:51:21.129Z,84.20
2022-10-20T03:52:21.013Z,83.94
2022-10-20T03:53:21.419Z,84.28
2022-10-20T03:54:21.429Z,84.55
2022-10-20T03:55:21.338Z,84.49
2022-10-20T03:56:21.499Z,84.45
2022-10-20T03:57:21.706Z,84.68
2022-10-20T03:58:21.356Z,84.82
2022-10-20T03:59:20.608Z,84.71
2022-10-20T04:00:20.788Z,84.56
2022-10-20T04:01:21.328Z,84.89
2022-10-20T04:02:25.679Z,85.18
2022-10-20T04:03:21.275Z,84.97
2022-10-20T04:04:21.428Z,84.69
2022-10-20T04:05:20.577Z,84.90
2022-10-20T04:06:21.358Z,85.17
2022-10-20T04:07:20.497Z,84.78
2022-10-20T04:08:22.378Z,84.60
2022-10-20T04:09:21.188Z,84.53
2022-10-20T04:10:20.588Z,84.57
2022-10-20T04:11:21.083Z,84.65
2022-10-20T04:12:21.537Z,85.00
2022-10-20T04:13:21.127Z,85.26
2022-10-20T04:14:22.287Z,85.14
2022-10-20T04:15:21.105Z,85.02
2022-10-20T04:16:21.126Z,85.03
2022-10-20T04:17:21.046Z,85.27
2022-10-20T04:18:21.116Z,85.41
2022-10-20T04:19:20.347Z,85.65
2022-10-20T04:20:21.666Z,85.60
2022-10-20T04:21:20.313Z,85.21
2022-10-20T04:22:21.015Z,85.06
2022-10-20T04:23:20.946Z,85.02
2022-10-20T04:24:21.029Z,85.17
2022-10-20T04:25:20.345Z,84.96
2022-10-20T04:26:20.448Z,85.21
2022-10-20T04:27:20.387Z,85.31
2022-10-20T04:28:20.354Z,85.19
2022-10-20T04:29:20.307Z,85.06
2022-10-20T04:30:20.305Z,84.93
2022-10-20T04:31:20.866Z,85.15
2022-10-20T04:32:21.034Z,85.37
2022-10-20T04:33:20.861Z,85.26
2022-10-20T04:34:21.394Z,85.21
2022-10-20T04:35:20.784Z,85.33
2022-10-20T04:36:20.253Z,84.95
2022-10-20T04:37:20.802Z,84.98
2022-10-20T04:38:21.123Z,85.25
2022-10-20T04:39:20.793Z,84.80
2022-10-20T04:40:20.887Z,84.76
2022-10-20T04:41:20.703Z,84.50
2022-10-20T04:42:20.813Z,84.63
2022-10-20T04:43:20.184Z,84.81
2022-10-20T04:44:20.945Z,84.77
2022-10-20T04:45:20.794Z,85.19
2022-10-20T04:46:21.400Z,85.26
2022-10-20T04:47:19.992Z,85.04
2022-10-20T04:48:20.244Z,85.02
2022-10-20T04:49:20.059Z,85.21
2022-10-20T04:50:21.035Z,85.04
2022-10-20T04:51:19.930Z,85.00
2022-10-20T04:52:19.973Z,85.39
2022-10-20T04:53:20.272Z,85.49
2022-10-20T04:54:20.012Z,85.44
2022-10-20T04:55:20.540Z,85.45
2022-10-20T04:56:19.949Z,85.43
2022-10-20T04:57:19.861Z,85.21
2022-10-20T04:58:20.693Z,85.06
2022-10-20T04:59:20.701Z,85.08
2022-10-20T05:00:20.631Z,85.56
2022-10-20T05:01:19.932Z,85.88
2022-10-20T05:02:22.621Z,86.36
2022-10-20T05:03:20.723Z,85.93
2022-10-20T05:04:20.551Z,85.37
2022-10-20T05:05:20.411Z,85.29
2022-10-20T05:06:20.559Z,84.79
2022-10-20T05:07:19.741Z,84.50
2022-10-20T05:08:20.710Z,84.56
2022-10-20T05:09:19.720Z,84.44
2022-10-20T05:10:20.480Z,84.58
2022-10-20T05:11:20.310Z,84.85
2022-10-20T05:12:41.458Z,85.29
2022-10-20T05:13:19.638Z,85.72
2022-10-20T05:14:23.821Z,85.61
2022-10-20T05:15:19.601Z,85.48
2022-10-20T05:16:20.459Z,85.44
2022-10-20T05:17:20.229Z,85.61
2022-10-20T05:18:19.639Z,86.06
2022-10-20T05:19:20.479Z,86.21
2022-10-20T05:20:21.549Z,86.14
2022-10-20T05:21:20.374Z,86.01
2022-10-20T05:22:19.647Z,85.68
2022-10-20T05:23:19.509Z,85.53
2022-10-20T05:24:22.849Z,85.15
2022-10-20T05:25:35.687Z,85.01
2022-10-20T05:26:21.045Z,85.00
2022-10-20T05:27:19.618Z,85.19
2022-10-20T05:28:19.470Z,85.51
2022-10-20T05:29:19.756Z,85.59
2022-10-20T05:30:19.537Z,85.65
2022-10-20T05:31:19.678Z,85.74
2022-10-20T05:32:19.436Z,85.72
2022-10-20T05:33:19.437Z,85.84
2022-10-20T05:34:19.374Z,85.98
2022-10-20T05:35:19.455Z,86.16
2022-10-20T05:36:21.473Z,86.28
2022-10-20T05:37:20.247Z,86.31
2022-10-20T05:38:19.348Z,86.55
2022-10-20T05:39:19.377Z,86.25
2022-10-20T05:40:19.986Z,86.01
2022-10-20T05:41:19.366Z,86.17
2022-10-20T05:42:19.257Z,85.98
2022-10-20T05:43:19.348Z,85.86
2022-10-20T05:44:20.395Z,85.90
2022-10-20T05:45:19.316Z,86.01
2022-10-20T05:46:19.904Z,86.10
2022-10-20T05:47:19.255Z,86.17
2022-10-20T05:48:19.825Z,86.27
2022-10-20T05:49:19.205Z,86.09
2022-10-20T05:50:19.812Z,85.97
2022-10-20T05:51:19.915Z,85.96
2022-10-20T05:52:19.807Z,85.99
2022-10-20T05:53:19.914Z,85.80
2022-10-20T05:54:19.742Z,85.68
2022-10-20T05:55:20.061Z,85.77
2022-10-20T05:56:19.734Z,85.99
2022-10-20T05:57:19.994Z,86.04
2022-10-20T05:58:20.919Z,86.28
2022-10-20T05:59:19.744Z,86.25
2022-10-20T06:00:19.196Z,86.39
2022-10-20T06:01:19.833Z,86.36
2022-10-20T06:02:19.043Z,86.23
2022-10-20T06:03:20.266Z,86.24
2022-10-20T06:04:19.745Z,86.19
2022-10-20T06:05:19.582Z,86.13
2022-10-20T06:06:18.972Z,86.19
2022-10-20T06:07:19.763Z,86.42
2022-10-20T06:08:18.982Z,86.27
2022-10-20T06:09:19.605Z,86.46
2022-10-20T06:10:19.659Z,86.42
2022-10-20T06:11:18.872Z,86.35
2022-10-20T06:12:19.602Z,86.23
2022-10-20T06:13:18.912Z,86.39
2022-10-20T06:14:19.959Z,86.43
2022-10-20T06:15:18.824Z,86.65
2022-10-20T06:16:19.511Z,86.52
2022-10-20T06:17:19.759Z,86.58
2022-10-20T06:18:19.512Z,86.27
2022-10-20T06:19:19.624Z,86.11
2022-10-20T06:20:19.510Z,85.89
2022-10-20T06:21:19.450Z,86.04
2022-10-20T06:22:19.503Z,85.94
2022-10-20T06:23:20.002Z,86.02
2022-10-20T06:24:40.765Z,86.21
2022-10-20T06:25:19.441Z,86.52
2022-10-20T06:26:19.511Z,86.53
2022-10-20T06:27:18.661Z,86.61
2022-10-20T06:28:18.705Z,86.60
2022-10-20T06:29:18.666Z,86.20
2022-10-20T06:30:19.149Z,86.03
2022-10-20T06:31:18.603Z,86.15
2022-10-20T06:32:18.699Z,86.36
2022-10-20T06:33:18.569Z,86.21
2022-10-20T06:34:19.359Z,86.15
2022-10-20T06:35:18.599Z,86.34
2022-10-20T06:36:18.709Z,86.37
2022-10-20T06:37:18.542Z,86.24
2022-10-20T06:38:20.141Z,86.15
2022-10-20T06:39:18.500Z,86.03
2022-10-20T06:40:18.588Z,86.13
2022-10-20T06:41:18.489Z,86.48
2022-10-20T06:42:18.592Z,86.85
2022-10-20T06:43:18.579Z,86.86
2022-10-20T06:44:19.598Z,86.71
2022-10-20T06:45:18.528Z,86.60
2022-10-20T06:46:28.499Z,86.24
2022-10-20T06:47:18.697Z,85.96
2022-10-20T06:48:18.677Z,85.89
2022-10-20T06:49:18.469Z,85.94
2022-10-20T06:50:18.557Z,85.97
2022-10-20T06:51:19.157Z,85.95
2022-10-20T06:52:20.846Z,85.92
2022-10-20T06:53:18.499Z,85.96
2022-10-20T06:54:18.486Z,86.04
2022-10-20T06:55:18.423Z,85.96
2022-10-20T06:56:18.313Z,86.01
2022-10-20T06:57:18.294Z,86.04
2022-10-20T06:58:18.326Z,86.19
2022-10-20T06:59:19.688Z,86.28
2022-10-20T07:00:18.482Z,86.13
2022-10-20T07:01:18.319Z,86.06
2022-10-20T07:02:18.245Z,86.21
2022-10-20T07:03:18.213Z,86.29
2022-10-20T07:04:18.258Z,86.35
2022-10-20T07:05:18.738Z,86.58
2022-10-20T07:06:18.942Z,86.54
2022-10-20T07:07:18.815Z,86.58
2022-10-20T07:08:19.940Z,86.79
2022-10-20T07:09:18.162Z,87.07
2022-10-20T07:10:18.574Z,87.11
2022-10-20T07:11:18.805Z,87.33
2022-10-20T07:12:18.253Z,87.43
2022-10-20T07:13:18.064Z,87.50
2022-10-20T07:14:18.149Z,87.39
2022-10-20T07:15:18.723Z,87.55
2022-10-20T07:16:18.044Z,87.22
2022-10-20T07:17:18.134Z,86.87
2022-10-20T07:18:18.936Z,87.02
2022-10-20T07:19:17.974Z,86.78
2022-10-20T07:20:18.781Z,86.89
2022-10-20T07:21:18.622Z,87.10
2022-10-20T07:22:18.795Z,86.64
2022-10-20T07:23:18.652Z,86.44
2022-10-20T07:24:18.943Z,86.35
2022-10-20T07:25:18.573Z,86.22
2022-10-20T07:26:17.892Z,86.16
2022-10-20T07:27:18.562Z,86.06
2022-10-20T07:28:18.703Z,86.11
2022-10-20T07:29:17.860Z,85.83
2022-10-20T07:30:17.902Z,85.54
2022-10-20T07:31:17.843Z,85.63
2022-10-20T07:32:18.471Z,85.83
2022-10-20T07:33:17.802Z,85.84
2022-10-20T07:34:27.519Z,85.37
2022-10-20T07:35:20.492Z,85.15
2022-10-20T07:36:18.506Z,85.03
2022-10-20T07:37:17.748Z,84.65
2022-10-20T07:38:18.482Z,84.37
2022-10-20T07:39:17.712Z,84.31
2022-10-20T07:40:18.524Z,84.45
2022-10-20T07:41:18.571Z,84.64
2022-10-20T07:42:19.056Z,84.54
2022-10-20T07:43:18.331Z,84.34
2022-10-20T07:44:18.398Z,84.62
2022-10-20T07:45:17.632Z,84.58
2022-10-20T07:46:17.784Z,84.15
2022-10-20T07:47:17.651Z,84.00
2022-10-20T07:48:18.461Z,84.06
2022-10-20T07:50:18.582Z,84.14
2022-10-20T07:51:17.624Z,83.90
2022-10-20T07:52:17.532Z,83.61
2022-10-20T07:53:17.741Z,83.50
2022-10-20T07:54:17.541Z,83.14
2022-10-20T07:55:36.938Z,83.06
2022-10-20T07:56:18.501Z,83.26
2022-10-20T07:57:18.221Z,83.60
2022-10-20T07:58:18.171Z,83.72
2022-10-20T07:59:18.390Z,83.51
2022-10-20T08:00:18.801Z,83.42
2022-10-20T08:01:18.115Z,83.38
2022-10-20T08:02:18.167Z,82.92
2022-10-20T08:03:18.162Z,82.86
2022-10-20T08:04:17.381Z,83.03
2022-10-20T08:05:18.391Z,83.38
2022-10-20T08:06:17.991Z,83.29
2022-10-20T08:07:39.211Z,83.12
2022-10-20T08:08:18.010Z,82.86
2022-10-20T08:09:17.991Z,82.54
2022-10-20T08:10:19.110Z,82.28
2022-10-20T08:11:18.167Z,82.52
2022-10-20T08:12:39.195Z,82.20
2022-10-20T08:13:17.910Z,82.64
2022-10-20T08:14:18.097Z,82.42
2022-10-20T08:15:17.921Z,82.04
2022-10-20T08:16:19.982Z,81.69
2022-10-20T08:17:18.089Z,81.60
2022-10-20T08:18:19.391Z,81.53
2022-10-20T08:19:39.278Z,80.96
2022-10-20T08:20:22.487Z,81.20
2022-10-20T08:21:18.890Z,81.26
2022-10-20T08:22:17.959Z,81.17
2022-10-20T08:23:18.007Z,81.29
2022-10-20T08:24:17.919Z,81.14
2022-10-20T08:25:17.769Z,81.30
2022-10-20T08:26:17.119Z,81.86
2022-10-20T08:27:17.079Z,81.93
2022-10-20T08:28:17.135Z,81.12
2022-10-20T08:29:17.915Z,80.57
2022-10-20T08:30:25.613Z,80.00
2022-10-20T08:31:18.767Z,79.86
2022-10-20T08:32:17.728Z,80.28
2022-10-20T08:33:17.719Z,79.60
2022-10-20T08:34:17.130Z,79.31
2022-10-20T08:35:16.999Z,78.96
2022-10-20T08:36:17.797Z,78.83
2022-10-20T08:38:17.721Z,78.85
2022-10-20T08:39:17.591Z,79.49
2022-10-20T08:40:17.676Z,79.23
2022-10-20T08:41:17.838Z,78.98
2022-10-20T08:42:17.621Z,78.25
2022-10-20T08:43:17.501Z,77.43
2022-10-20T08:44:17.601Z,77.21
2022-10-20T08:45:17.048Z,76.34
2022-10-20T08:47:17.746Z,74.15
2022-10-20T08:48:17.840Z,74.42
2022-10-20T08:49:17.427Z,74.26
2022-10-20T08:50:16.888Z,72.72
2022-10-20T08:51:17.448Z,73.36
2022-10-20T08:52:18.737Z,72.63
2022-10-20T08:53:17.688Z,72.22
2022-10-20T08:54:17.536Z,72.79
2022-10-20T08:55:17.378Z,72.04
2022-10-20T08:56:38.475Z,71.92
2022-10-20T08:57:16.678Z,72.04
2022-10-20T08:58:37.900Z,70.55
2022-10-20T08:59:16.638Z,71.10
2022-10-20T09:00:17.431Z,71.16
2022-10-20T09:01:17.399Z,71.10
2022-10-20T09:02:17.364Z,70.95
2022-10-20T09:03:19.519Z,70.29
2022-10-20T09:04:18.387Z,70.52
2022-10-20T09:05:18.338Z,69.60
2022-10-20T09:06:17.445Z,69.77
2022-10-20T09:07:17.198Z,69.61
2022-10-20T09:08:17.304Z,69.71
2022-10-20T09:09:17.178Z,69.79
2022-10-20T09:10:17.369Z,68.95
2022-10-20T09:11:16.477Z,68.92
2022-10-20T09:12:17.309Z,68.60
2022-10-20T09:13:17.229Z,69.68
2022-10-20T09:14:19.428Z,68.75
2022-10-20T09:15:16.447Z,69.51
2022-10-20T09:16:27.169Z,68.93
2022-10-20T09:17:18.078Z,68.78
2022-10-20T09:18:17.195Z,68.57
2022-10-20T09:19:17.038Z,68.54
2022-10-20T09:20:17.197Z,69.32
2022-10-20T09:21:22.816Z,68.73
2022-10-20T09:22:17.608Z,69.12
2022-10-20T09:23:39.010Z,69.11
2022-10-20T09:24:17.347Z,67.75
2022-10-20T09:25:16.299Z,66.88
2022-10-20T09:26:30.466Z,67.30
2022-10-20T09:27:18.055Z,67.25
2022-10-20T09:28:17.499Z,66.62
2022-10-20T09:29:16.956Z,67.36
2022-10-20T09:30:16.958Z,65.61
2022-10-20T09:31:16.896Z,64.65
2022-10-20T09:32:41.233Z,66.49
2022-10-20T09:33:17.257Z,66.96
2022-10-20T09:34:16.507Z,65.67
2022-10-20T09:35:16.968Z,65.74
2022-10-20T09:36:16.163Z,66.88
2022-10-20T09:37:16.847Z,66.29
2022-10-20T09:38:16.898Z,67.05
2022-10-20T09:39:17.057Z,67.43
2022-10-20T09:40:18.706Z,67.09
2022-10-20T09:41:16.128Z,65.83
2022-10-20T09:42:16.785Z,66.08
2022-10-20T09:43:16.907Z,67.06
2022-10-20T09:44:16.707Z,65.22
2022-10-20T09:45:16.117Z,65.45
2022-10-20T09:46:16.020Z,64.57
2022-10-20T09:47:16.067Z,64.77
2022-10-20T09:48:16.708Z,66.51
2022-10-20T09:49:16.638Z,65.90
2022-10-20T09:50:16.663Z,65.94
2022-10-20T09:51:16.989Z,66.74
2022-10-20T09:52:16.628Z,65.18
2022-10-20T09:53:16.058Z,66.53
2022-10-20T09:54:15.910Z,66.28
2022-10-20T09:55:15.925Z,63.95
2022-10-20T09:56:16.497Z,63.28
2022-10-20T09:57:16.958Z,64.17
2022-10-20T09:58:17.251Z,64.84
2022-10-20T09:59:15.938Z,64.33
2022-10-20T10:00:35.866Z,66.29
2022-10-20T10:01:16.912Z,64.66
2022-10-20T10:02:38.403Z,63.23
2022-10-20T10:03:15.799Z,64.04
2022-10-20T10:04:16.964Z,63.67
2022-10-20T10:05:16.488Z,63.21
2022-10-20T10:06:15.808Z,63.09
2022-10-20T10:07:16.388Z,63.39
2022-10-20T10:08:16.889Z,64.91
2022-10-20T10:09:15.733Z,62.67
2022-10-20T10:10:15.817Z,62.44
2022-10-20T10:11:16.417Z,61.78
2022-10-20T10:12:17.374Z,60.84
2022-10-20T10:13:16.924Z,60.28
2022-10-20T10:14:16.640Z,60.32
2022-10-20T10:15:16.396Z,62.31
2022-10-20T10:16:15.668Z,61.33
2022-10-20T10:17:16.410Z,61.38
2022-10-20T10:18:16.288Z,61.53
2022-10-20T10:19:16.252Z,62.07
2022-10-20T10:20:16.652Z,60.96
2022-10-20T10:21:18.058Z,61.15
2022-10-20T10:22:16.378Z,60.04
2022-10-20T10:23:16.477Z,61.19
2022-10-20T10:24:15.509Z,61.08
2022-10-20T10:25:15.498Z,59.79
2022-10-20T10:26:16.394Z,60.20
2022-10-20T10:27:16.147Z,60.31
2022-10-20T10:28:15.597Z,60.13
2022-10-20T10:29:15.445Z,59.47
2022-10-20T10:30:15.520Z,60.39
2022-10-20T10:31:16.147Z,60.26
2022-10-20T10:32:15.588Z,60.23
2022-10-20T10:33:15.397Z,61.09
2022-10-20T10:34:16.160Z,59.49
2022-10-20T10:35:16.155Z,59.36
2022-10-20T10:36:16.158Z,58.92
2022-10-20T10:37:16.042Z,58.99
2022-10-20T10:38:16.850Z,59.45
2022-10-20T10:39:15.979Z,59.06
2022-10-20T10:40:16.073Z,59.68
2022-10-20T10:41:15.910Z,58.89
2022-10-20T10:42:16.391Z,59.59
2022-10-20T10:43:16.359Z,59.25
2022-10-20T10:44:16.419Z,59.20
2022-10-20T10:45:15.258Z,58.90
2022-10-20T10:46:16.068Z,59.37
2022-10-20T10:47:15.890Z,58.80
2022-10-20T10:48:16.897Z,57.92
2022-10-20T10:49:16.108Z,58.20
2022-10-20T10:50:15.254Z,57.80
2022-10-20T10:51:15.163Z,59.31
2022-10-20T10:52:16.303Z,58.41
2022-10-20T10:53:15.928Z,59.52
2022-10-20T10:54:15.938Z,59.08
2022-10-20T10:55:25.844Z,59.15
2022-10-20T10:56:16.980Z,58.73
2022-10-20T10:57:15.759Z,58.95
2022-10-20T10:58:16.913Z,59.05
2022-10-20T10:59:15.681Z,57.84
2022-10-20T11:00:15.059Z,59.22
2022-10-20T11:01:15.723Z,59.59
2022-10-20T11:02:16.141Z,59.07
2022-10-20T11:03:15.850Z,56.92
2022-10-20T11:04:15.999Z,59.11
2022-10-20T11:06:15.663Z,58.35
2022-10-20T11:07:15.610Z,57.99
2022-10-20T11:08:15.839Z,58.00
2022-10-20T11:09:15.691Z,58.17
2022-10-20T11:10:15.654Z,58.41
2022-10-20T11:11:14.878Z,56.85
2022-10-20T11:12:15.681Z,56.45
2022-10-20T11:13:15.538Z,57.88
2022-10-20T11:14:15.869Z,56.33
2022-10-20T11:15:15.520Z,56.38
2022-10-20T11:16:15.682Z,56.09
2022-10-20T11:17:15.443Z,56.28
2022-10-20T11:18:15.590Z,57.32
2022-10-20T11:19:15.571Z,57.07
2022-10-20T11:20:15.751Z,58.43
2022-10-20T11:21:15.431Z,57.95
2022-10-20T11:22:15.848Z,56.80
2022-10-20T11:23:15.422Z,55.54
2022-10-20T11:24:17.503Z,58.10
2022-10-20T11:25:15.351Z,56.71
2022-10-20T11:26:15.670Z,57.50
2022-10-20T11:27:15.826Z,57.44
2022-10-20T11:28:15.441Z,57.12
2022-10-20T11:29:15.281Z,56.69
2022-10-20T11:30:14.709Z,55.97
2022-10-20T11:31:15.890Z,56.12
2022-10-20T11:32:14.746Z,57.16
2022-10-20T11:33:15.260Z,56.05
2022-10-20T11:34:16.603Z,55.86
2022-10-20T11:35:15.311Z,56.79
2022-10-20T11:36:15.271Z,55.53
2022-10-20T11:37:15.241Z,56.13
2022-10-20T11:38:15.500Z,54.84
2022-10-20T11:39:15.201Z,56.56
2022-10-20T11:40:15.761Z,55.47
2022-10-20T11:41:15.351Z,55.49
2022-10-20T11:42:15.201Z,55.96
2022-10-20T11:43:15.043Z,56.01
2022-10-20T11:44:17.439Z,55.38
2022-10-20T11:45:15.171Z,55.04
2022-10-20T11:46:15.172Z,55.31
2022-10-20T11:47:15.023Z,55.06
2022-10-20T11:48:15.262Z,55.39
2022-10-20T11:49:15.272Z,54.19
2022-10-20T11:50:15.432Z,54.89
2022-10-20T11:51:15.653Z,54.89
2022-10-20T11:52:15.104Z,56.03
2022-10-20T11:53:15.030Z,56.31
2022-10-20T11:54:15.035Z,56.19
2022-10-20T11:55:14.942Z,56.26
2022-10-20T11:56:15.182Z,54.94
2022-10-20T11:57:14.942Z,54.16
2022-10-20T11:58:14.915Z,54.01
2022-10-20T11:59:14.860Z,54.96
2022-10-20T12:00:15.006Z,55.41
2022-10-20T12:01:14.957Z,55.60
2022-10-20T12:02:15.045Z,54.29
2022-10-20T12:03:14.852Z,54.46
2022-10-20T12:04:14.990Z,53.47
2022-10-20T12:05:14.174Z,52.88
2022-10-20T12:06:14.879Z,53.26
2022-10-20T12:07:15.024Z,54.95
2022-10-20T12:08:29.429Z,54.54
2022-10-20T12:09:16.271Z,54.98
2022-10-20T12:10:14.154Z,54.27
2022-10-20T12:11:14.824Z,53.34
2022-10-20T12:12:15.062Z,53.14
2022-10-20T12:13:14.293Z,54.03
2022-10-20T12:14:15.224Z,52.64
2022-10-20T12:15:18.918Z,54.54
2022-10-20T12:16:15.013Z,53.56
2022-10-20T12:17:14.782Z,53.61
2022-10-20T12:18:14.704Z,52.92
2022-10-20T12:19:14.834Z,54.15
2022-10-20T12:20:14.801Z,52.98
2022-10-20T12:21:14.644Z,53.26
2022-10-20T12:22:14.541Z,52.71
2022-10-20T12:23:14.624Z,52.61
2022-10-20T12:24:14.596Z,52.36
2022-10-20T12:25:14.034Z,52.02
2022-10-20T12:26:14.814Z,52.94
2022-10-20T12:27:14.612Z,52.91
2022-10-20T12:28:13.825Z,52.93
2022-10-20T12:29:13.865Z,51.63
2022-10-20T12:30:13.836Z,51.63
2022-10-20T12:31:14.544Z,52.04
2022-10-20T12:32:14.522Z,52.75
2022-10-20T12:33:14.385Z,53.16
2022-10-20T12:34:14.506Z,51.17
2022-10-20T12:35:14.465Z,51.80
2022-10-20T12:36:14.502Z,51.75
2022-10-20T12:37:15.516Z,51.18
2022-10-20T12:38:14.564Z,51.19
2022-10-20T12:39:13.725Z,51.93
2022-10-20T12:40:14.313Z,51.70
2022-10-20T12:41:14.513Z,50.97
2022-10-20T12:42:14.304Z,52.54
2022-10-20T12:43:14.495Z,52.00
2022-10-20T12:44:14.495Z,52.21
2022-10-20T12:45:14.486Z,53.14
2022-10-20T12:46:14.389Z,52.30
2022-10-20T12:47:14.407Z,52.13
2022-10-20T12:48:14.247Z,51.51
2022-10-20T12:49:14.308Z,51.94
2022-10-20T12:50:14.367Z,51.39
2022-10-20T12:51:14.367Z,51.39
2022-10-20T12:52:14.147Z,51.66
2022-10-20T12:53:14.229Z,51.80
2022-10-20T12:54:14.405Z,52.08
2022-10-20T12:55:13.567Z,51.54
2022-10-20T12:56:14.314Z,52.85